Terminal Aerodrome Forecast
Issued by NWS

Home | Current Version | Previous Version | Graphics & Text | Print | Product List | Glossary On
Versions: 1 2 3 4 5 6 7 8 9 10 11 12 13 14 15 16 17 18 19
000
FTUS43 KBIS 270700 AAA
TAFDIK
TAF AMD
KDIK 270724Z 2707/2806 21007KT P6SM OVC025
      TEMPO 2707/2710 24007KT BKN015
     FM271100 26008KT P6SM SCT025
     FM271300 25009KT P6SM FEW300
     FM271800 25011KT P6SM SCT120 BKN200
     FM272200 26007KT P6SM SCT060 BKN090 OVC120=

USA.gov is the U.S. government's official web portal to all federal, state and local government web resources and services.